createdAt,value
2018-03-17T00:00:35.083Z,77.74
2018-03-17T00:01:35.070Z,77.83
2018-03-17T00:02:35.050Z,77.08
2018-03-17T00:03:35.035Z,76.79
2018-03-17T00:04:35.018Z,77.17
2018-03-17T00:05:35.002Z,79.06
2018-03-17T00:06:34.984Z,77.93
2018-03-17T00:07:34.966Z,77.93
2018-03-17T00:08:34.947Z,78.5
2018-03-17T00:09:34.931Z,79.44
2018-03-17T00:10:34.919Z,79.63
2018-03-17T00:11:34.897Z,78.87
2018-03-17T00:12:34.878Z,78.21
2018-03-17T00:13:34.867Z,79.53
2018-03-17T00:14:34.849Z,78.97
2018-03-17T00:15:34.828Z,78.5
2018-03-17T00:16:34.823Z,78.78
2018-03-17T00:17:34.797Z,78.59
2018-03-17T00:18:34.778Z,79.16
2018-03-17T00:19:34.760Z,78.87
2018-03-17T00:20:34.743Z,79.53
2018-03-17T00:21:34.727Z,79.44
2018-03-17T00:22:34.711Z,80.19
2018-03-17T00:23:34.691Z,80.95
2018-03-17T00:24:34.704Z,80.85
2018-03-17T00:25:34.411Z,79.82
2018-03-17T00:26:34.640Z,78.87
2018-03-17T00:27:34.627Z,77.55
2018-03-17T00:28:34.612Z,77.17
2018-03-17T00:29:34.591Z,76.98
2018-03-17T00:30:34.572Z,78.4
2018-03-17T00:31:34.600Z,76.98
2018-03-17T00:32:34.541Z,76.42
2018-03-17T00:33:34.520Z,76.32
2018-03-17T00:34:34.501Z,76.79
2018-03-17T00:35:34.488Z,77.08
2018-03-17T00:36:34.475Z,77.36
2018-03-17T00:37:34.467Z,77.17
2018-03-17T00:38:34.436Z,77.17
2018-03-17T00:39:34.423Z,77.17
2018-03-17T00:40:34.401Z,76.89
2018-03-17T00:41:34.385Z,76.51
2018-03-17T00:42:34.369Z,76.47
2018-03-17T00:43:34.351Z,76.79
2018-03-17T00:44:34.330Z,77.17
2018-03-17T00:45:34.331Z,76.66
2018-03-17T00:46:34.297Z,77.13
2018-03-17T00:47:34.025Z,77.8
2018-03-17T00:48:34.262Z,77.04
2018-03-17T00:49:34.253Z,77.13
2018-03-17T00:50:34.230Z,78.02
2018-03-17T00:51:34.216Z,76.51
2018-03-17T00:52:34.196Z,76.51
2018-03-17T00:53:34.192Z,76.47
2018-03-17T00:54:34.164Z,77.13
2018-03-17T00:55:34.197Z,78.31
2018-03-17T00:56:34.131Z,78.59
2018-03-17T00:57:34.113Z,78.08
2018-03-17T00:58:34.092Z,78.17
2018-03-17T00:59:34.076Z,76.32
2018-03-17T01:00:34.064Z,76.28
2018-03-17T01:01:34.041Z,76.47
2018-03-17T01:02:34.023Z,76.19
2018-03-17T01:03:34.003Z,76.28
2018-03-17T01:04:33.988Z,76.66
2018-03-17T01:05:33.973Z,76.7
2018-03-17T01:06:33.959Z,76.42
2018-03-17T01:07:33.933Z,76.95
2018-03-17T01:08:33.920Z,76.89
2018-03-17T01:09:33.902Z,76.57
2018-03-17T01:10:33.882Z,76.28
2018-03-17T01:11:33.609Z,75.62
2018-03-17T01:12:33.850Z,75.81
2018-03-17T01:13:33.838Z,75.81
2018-03-17T01:14:33.810Z,75.62
2018-03-17T01:15:33.794Z,76.09
2018-03-17T01:16:33.782Z,76.47
2018-03-17T01:17:33.762Z,76.47
2018-03-17T01:18:33.743Z,75.81
2018-03-17T01:19:33.736Z,76
2018-03-17T01:20:33.706Z,75.81
2018-03-17T01:21:33.710Z,76.09
2018-03-17T01:22:33.675Z,77.04
2018-03-17T01:23:33.657Z,77.13
2018-03-17T01:24:33.891Z,78.08
2018-03-17T01:25:33.366Z,76.66
2018-03-17T01:26:33.602Z,77.04
2018-03-17T01:27:33.587Z,76.76
2018-03-17T01:28:33.567Z,76.47
2018-03-17T01:29:33.555Z,76.47
2018-03-17T01:30:33.530Z,76.85
2018-03-17T01:31:33.512Z,78.27
2018-03-17T01:32:33.497Z,77.8
2018-03-17T01:33:33.484Z,77.13
2018-03-17T01:34:33.461Z,77.04
2018-03-17T01:35:33.442Z,76.66
2018-03-17T01:36:33.431Z,76.95
2018-03-17T01:37:33.408Z,76.95
2018-03-17T01:38:33.395Z,76.85
2018-03-17T01:39:33.376Z,76.95
2018-03-17T01:40:33.101Z,76.28
2018-03-17T01:41:33.338Z,75.62
2018-03-17T01:42:33.320Z,76.19
2018-03-17T01:43:33.306Z,76.28
2018-03-17T01:44:33.285Z,75.71
2018-03-17T01:45:33.270Z,75.34
2018-03-17T01:46:32.996Z,74.4
2018-03-17T01:47:33.233Z,74.87
2018-03-17T01:48:33.214Z,74.68
2018-03-17T01:49:33.200Z,74.87
2018-03-17T01:50:33.182Z,75.9
2018-03-17T01:51:32.905Z,77.13
2018-03-17T01:52:33.145Z,78.27
2018-03-17T01:53:33.127Z,78.55
2018-03-17T01:54:33.113Z,78.27
2018-03-17T01:55:33.344Z,77.8
2018-03-17T01:56:32.819Z,76.66
2018-03-17T01:57:33.059Z,76.66
2018-03-17T01:58:33.043Z,76.19
2018-03-17T01:59:33.023Z,76.76
2018-03-17T02:00:33.006Z,76.47
2018-03-17T02:01:32.983Z,74.4
2018-03-17T02:02:32.976Z,74.49
2018-03-17T02:03:32.951Z,74.11
2018-03-17T02:04:32.937Z,73.74
2018-03-17T02:05:32.915Z,74.02
2018-03-17T02:06:32.900Z,75.24
2018-03-17T02:07:32.880Z,76
2018-03-17T02:08:32.862Z,75.62
2018-03-17T02:09:32.841Z,75.02
2018-03-17T02:10:32.823Z,75.81
2018-03-17T02:11:32.807Z,76.53
2018-03-17T02:12:32.790Z,76.15
2018-03-17T02:13:32.773Z,76.15
2018-03-17T02:14:32.757Z,77.09
2018-03-17T02:15:32.736Z,77.75
2018-03-17T02:16:32.462Z,77
2018-03-17T02:17:32.701Z,76.66
2018-03-17T02:18:32.687Z,76.81
2018-03-17T02:19:32.669Z,77.75
2018-03-17T02:20:32.646Z,77.85
2018-03-17T02:21:32.627Z,76.9
2018-03-17T02:22:32.610Z,76.81
2018-03-17T02:23:32.592Z,75.96
2018-03-17T02:24:32.574Z,75.9
2018-03-17T02:25:32.555Z,75.96
2018-03-17T02:26:32.550Z,76.43
2018-03-17T02:27:32.517Z,77
2018-03-17T02:28:32.498Z,76.53
2018-03-17T02:29:32.481Z,76.25
2018-03-17T02:30:32.486Z,76.62
2018-03-17T02:31:32.479Z,75.87
2018-03-17T02:32:32.430Z,76.15
2018-03-17T02:33:32.420Z,75.49
2018-03-17T02:34:32.395Z,75.4
2018-03-17T02:35:32.377Z,75.87
2018-03-17T02:36:32.357Z,76.53
2018-03-17T02:37:32.338Z,77.19
2018-03-17T02:38:32.318Z,76.15
2018-03-17T02:39:32.307Z,76.72
2018-03-17T02:40:32.287Z,77.09
2018-03-17T02:41:32.271Z,77
2018-03-17T02:42:32.248Z,77.56
2018-03-17T02:43:32.243Z,78.42
2018-03-17T02:44:32.216Z,78.32
2018-03-17T02:45:32.198Z,78.23
2018-03-17T02:46:32.174Z,78.6
2018-03-17T02:47:32.157Z,78.6
2018-03-17T02:48:32.137Z,78.79
2018-03-17T02:49:32.122Z,78.04
2018-03-17T02:50:32.103Z,78.6
2018-03-17T02:51:32.087Z,78.7
2018-03-17T02:52:32.142Z,78.51
2018-03-17T02:53:32.064Z,78.23
2018-03-17T02:54:32.029Z,76.53
2018-03-17T02:55:32.027Z,77.19
2018-03-17T02:56:31.994Z,77.94
2018-03-17T02:57:31.974Z,76.9
2018-03-17T02:58:31.955Z,77.66
2018-03-17T02:59:31.939Z,77.85
2018-03-17T03:00:31.919Z,76.9
2018-03-17T03:01:31.905Z,77
2018-03-17T03:02:31.885Z,77.66
2018-03-17T03:03:31.860Z,77.85
2018-03-17T03:04:31.843Z,76.81
2018-03-17T03:05:31.845Z,76.34
2018-03-17T03:06:31.560Z,75.78
2018-03-17T03:07:31.789Z,75.4
2018-03-17T03:08:31.779Z,75.21
2018-03-17T03:09:31.761Z,75.11
2018-03-17T03:10:31.732Z,75.68
2018-03-17T03:11:31.717Z,76.43
2018-03-17T03:12:31.706Z,77.66
2018-03-17T03:13:31.683Z,77.85
2018-03-17T03:14:31.661Z,76.06
2018-03-17T03:15:31.649Z,77.09
2018-03-17T03:16:31.622Z,78.13
2018-03-17T03:17:31.611Z,78.79
2018-03-17T03:18:31.584Z,78.13
2018-03-17T03:19:31.568Z,77.09
2018-03-17T03:20:31.551Z,77.19
2018-03-17T03:21:31.534Z,77
2018-03-17T03:22:31.514Z,77.09
2018-03-17T03:23:31.496Z,77.75
2018-03-17T03:24:31.481Z,78.42
2018-03-17T03:25:31.204Z,77.85
2018-03-17T03:26:31.438Z,77
2018-03-17T03:27:31.431Z,76.9
2018-03-17T03:28:31.424Z,77
2018-03-17T03:29:31.389Z,78.13
2018-03-17T03:30:31.380Z,77.75
2018-03-17T03:31:31.359Z,77.75
2018-03-17T03:32:31.076Z,76.72
2018-03-17T03:33:31.314Z,77.47
2018-03-17T03:34:31.290Z,77.85
2018-03-17T03:35:31.288Z,77.85
2018-03-17T03:36:31.253Z,78.04
2018-03-17T03:37:31.240Z,77.28
2018-03-17T03:38:31.220Z,76.06
2018-03-17T03:39:31.207Z,76.34
2018-03-17T03:40:31.181Z,77.37
2018-03-17T03:41:31.176Z,77.75
2018-03-17T03:42:31.149Z,76.72
2018-03-17T03:43:31.131Z,76.34
2018-03-17T03:44:31.109Z,76.15
2018-03-17T03:45:31.094Z,76.53
2018-03-17T03:46:31.072Z,76.25
2018-03-17T03:47:31.052Z,76.62
2018-03-17T03:48:31.035Z,77
2018-03-17T03:49:30.762Z,77.85
2018-03-17T03:50:30.753Z,78.6
2018-03-17T03:51:30.983Z,78.32
2018-03-17T03:52:30.963Z,76.9
2018-03-17T03:53:30.946Z,76.15
2018-03-17T03:54:30.926Z,75.21
2018-03-17T03:55:30.907Z,75.3
2018-03-17T03:56:30.907Z,75.4
2018-03-17T03:57:30.874Z,74.83
2018-03-17T03:58:30.853Z,76.25
2018-03-17T03:59:30.836Z,75.59
2018-03-17T04:00:31.075Z,75.78
2018-03-17T04:01:30.799Z,75.87
2018-03-17T04:02:30.777Z,75.68
2018-03-17T04:03:30.768Z,75.96
2018-03-17T04:04:30.741Z,77.09
2018-03-17T04:05:30.729Z,77.09
2018-03-17T04:06:30.710Z,77.94
2018-03-17T04:07:30.690Z,77.94
2018-03-17T04:08:30.680Z,77.09
2018-03-17T04:09:30.653Z,75.78
2018-03-17T04:10:30.637Z,75.49
2018-03-17T04:11:30.621Z,75.21
2018-03-17T04:12:30.595Z,74.55
2018-03-17T04:13:30.578Z,75.3
2018-03-17T04:14:30.304Z,75.4
2018-03-17T04:15:30.548Z,74.92
2018-03-17T04:16:30.529Z,74.55
2018-03-17T04:17:30.503Z,74.36
2018-03-17T04:18:30.489Z,76.15
2018-03-17T04:19:30.468Z,76.06
2018-03-17T04:20:30.449Z,75.78
2018-03-17T04:21:30.432Z,76.15
2018-03-17T04:22:30.413Z,76.62
2018-03-17T04:23:30.394Z,76.25
2018-03-17T04:24:30.379Z,75.4
2018-03-17T04:25:30.357Z,74.55
2018-03-17T04:26:30.344Z,74.74
2018-03-17T04:27:30.320Z,75.4
2018-03-17T04:28:30.306Z,75.96
2018-03-17T04:29:30.286Z,74.92
2018-03-17T04:30:30.267Z,76.34
2018-03-17T04:31:30.499Z,76.06
2018-03-17T04:32:30.230Z,76.15
2018-03-17T04:33:30.218Z,75.96
2018-03-17T04:34:30.192Z,76.15
2018-03-17T04:35:30.173Z,75.21
2018-03-17T04:36:30.208Z,75.3
2018-03-17T04:37:30.140Z,74.92
2018-03-17T04:38:30.118Z,75.11
2018-03-17T04:39:30.103Z,75.21
2018-03-17T04:40:30.083Z,74.83
2018-03-17T04:41:30.069Z,75.11
2018-03-17T04:42:30.051Z,75.4
2018-03-17T04:43:30.031Z,75.87
2018-03-17T04:44:30.010Z,76.06
2018-03-17T04:45:30.018Z,76.15
2018-03-17T04:46:29.976Z,76.34
2018-03-17T04:47:29.954Z,76.9
2018-03-17T04:48:29.696Z,77.66
2018-03-17T04:49:29.927Z,78.89
2018-03-17T04:50:29.903Z,77.75
2018-03-17T04:51:29.882Z,77.37
2018-03-17T04:52:29.864Z,77.09
2018-03-17T04:53:29.851Z,76.62
2018-03-17T04:54:29.826Z,77.94
2018-03-17T04:55:29.810Z,77.47
2018-03-17T04:56:29.796Z,77.85
2018-03-17T04:57:29.778Z,77.66
2018-03-17T04:58:29.756Z,77.75
2018-03-17T04:59:29.752Z,77.66
2018-03-17T05:00:29.718Z,78.51
2018-03-17T05:01:29.697Z,78.42
2018-03-17T05:02:29.683Z,77.94
2018-03-17T05:03:29.663Z,76.62
2018-03-17T05:04:29.648Z,77
2018-03-17T05:05:29.628Z,77.19
2018-03-17T05:06:29.608Z,76.62
2018-03-17T05:07:29.589Z,76.81
2018-03-17T05:08:29.574Z,76.72
2018-03-17T05:09:29.555Z,76.62
2018-03-17T05:10:29.538Z,75.87
2018-03-17T05:11:29.515Z,75.96
2018-03-17T05:12:29.500Z,76.25
2018-03-17T05:13:29.482Z,76.43
2018-03-17T05:14:29.462Z,76.9
2018-03-17T05:15:29.450Z,77.09
2018-03-17T05:16:29.424Z,77.09
2018-03-17T05:17:29.409Z,78.23
2018-03-17T05:18:29.133Z,77.56
2018-03-17T05:19:29.371Z,78.42
2018-03-17T05:20:29.354Z,77
2018-03-17T05:21:29.333Z,76.06
2018-03-17T05:22:29.316Z,76.53
2018-03-17T05:23:29.298Z,76.81
2018-03-17T05:24:29.281Z,76.62
2018-03-17T05:25:29.260Z,76.15
2018-03-17T05:26:29.239Z,77
2018-03-17T05:27:29.233Z,77.94
2018-03-17T05:28:29.203Z,77.75
2018-03-17T05:29:28.935Z,77.75
2018-03-17T05:30:29.165Z,78.13
2018-03-17T05:31:29.153Z,78.04
2018-03-17T05:32:29.129Z,78.42
2018-03-17T05:33:29.121Z,79.27
2018-03-17T05:34:28.838Z,78.6
2018-03-17T05:35:28.827Z,78.6
2018-03-17T05:36:29.054Z,77.66
2018-03-17T05:37:29.040Z,78.04
2018-03-17T05:38:29.029Z,76.81
2018-03-17T05:39:29.004Z,77.66
2018-03-17T05:40:28.980Z,78.04
2018-03-17T05:41:28.965Z,77.56
2018-03-17T05:42:28.949Z,77.09
2018-03-17T05:43:28.928Z,77.09
2018-03-17T05:44:29.211Z,76.9
2018-03-17T05:45:28.891Z,76.53
2018-03-17T05:46:28.871Z,76.81
2018-03-17T05:47:28.860Z,76.81
2018-03-17T05:48:28.834Z,76.81
2018-03-17T05:49:28.816Z,77.09
2018-03-17T05:50:28.800Z,77.85
2018-03-17T05:51:28.780Z,78.32
2018-03-17T05:52:28.766Z,78.42
2018-03-17T05:53:28.742Z,78.6
2018-03-17T05:54:28.470Z,77
2018-03-17T05:55:28.709Z,77.19
2018-03-17T05:56:28.687Z,77
2018-03-17T05:57:28.673Z,77.09
2018-03-17T05:58:28.654Z,77.94
2018-03-17T05:59:28.378Z,78.89
2018-03-17T06:00:28.612Z,78.51
2018-03-17T06:01:28.597Z,79.08
2018-03-17T06:02:28.584Z,78.51
2018-03-17T06:03:28.572Z,78.42
2018-03-17T06:04:28.539Z,77.94
2018-03-17T06:05:28.524Z,77.19
2018-03-17T06:06:28.501Z,77.09
2018-03-17T06:07:28.490Z,77.75
2018-03-17T06:08:28.476Z,77.85
2018-03-17T06:09:28.456Z,76.9
2018-03-17T06:10:28.443Z,76.43
2018-03-17T06:11:28.421Z,76.43
2018-03-17T06:12:28.402Z,76.62
2018-03-17T06:13:28.377Z,76.9
2018-03-17T06:14:28.361Z,76.9
2018-03-17T06:15:28.346Z,76.34
2018-03-17T06:16:28.322Z,75.68
2018-03-17T06:17:28.305Z,76.53
2018-03-17T06:18:28.287Z,77
2018-03-17T06:19:28.271Z,76.81
2018-03-17T06:20:28.255Z,76.81
2018-03-17T06:21:28.232Z,76.81
2018-03-17T06:22:28.226Z,75.87
2018-03-17T06:23:28.196Z,75.49
2018-03-17T06:24:27.924Z,74.83
2018-03-17T06:25:28.160Z,76.81
2018-03-17T06:26:28.146Z,77.19
2018-03-17T06:27:28.126Z,78.13
2018-03-17T06:28:28.109Z,77.94
2018-03-17T06:29:28.090Z,76.72
2018-03-17T06:30:28.076Z,75.87
2018-03-17T06:31:28.053Z,74.77
2018-03-17T06:32:28.035Z,74.77
2018-03-17T06:33:28.020Z,73.79
2018-03-17T06:34:28.015Z,73.79
2018-03-17T06:35:27.986Z,73.79
2018-03-17T06:36:28.287Z,75.59
2018-03-17T06:37:27.949Z,75.3
2018-03-17T06:38:27.930Z,75.59
2018-03-17T06:39:27.920Z,74.55
2018-03-17T06:40:27.894Z,75.11
2018-03-17T06:41:27.890Z,75.87
2018-03-17T06:42:27.863Z,76.62
2018-03-17T06:43:27.844Z,76.72
2018-03-17T06:44:27.832Z,77
2018-03-17T06:45:27.810Z,77.94
2018-03-17T06:46:27.538Z,77.19
2018-03-17T06:47:27.773Z,76.62
2018-03-17T06:48:27.504Z,76.43
2018-03-17T06:49:27.749Z,75.71
2018-03-17T06:50:27.725Z,75.62
2018-03-17T06:51:27.707Z,75.81
2018-03-17T06:52:27.687Z,74.58
2018-03-17T06:53:27.669Z,74.77
2018-03-17T06:54:27.652Z,74.02
2018-03-17T06:55:27.640Z,73.17
2018-03-17T06:56:27.621Z,73.83
2018-03-17T06:57:27.611Z,73.74
2018-03-17T06:58:27.583Z,74.49
2018-03-17T06:59:27.568Z,74.58
2018-03-17T07:00:27.549Z,74.77
2018-03-17T07:01:27.535Z,75.24
2018-03-17T07:02:27.520Z,74.21
2018-03-17T07:03:27.501Z,74.21
2018-03-17T07:04:27.480Z,74.21
2018-03-17T07:05:27.464Z,75.05
2018-03-17T07:06:27.475Z,75.24
2018-03-17T07:07:27.688Z,75.71
2018-03-17T07:08:27.410Z,75.24
2018-03-17T07:09:27.401Z,74.87
2018-03-17T07:10:27.380Z,73.93
2018-03-17T07:11:27.381Z,73.55
2018-03-17T07:12:27.346Z,72.03
2018-03-17T07:13:27.328Z,71.66
2018-03-17T07:14:27.054Z,72.13
2018-03-17T07:15:27.300Z,73.36
2018-03-17T07:16:27.278Z,73.74
2018-03-17T07:17:27.259Z,73.83
2018-03-17T07:18:27.241Z,74.68
2018-03-17T07:19:26.970Z,74.87
2018-03-17T07:20:27.205Z,75.24
2018-03-17T07:21:27.193Z,75.62
2018-03-17T07:22:27.171Z,75.71
2018-03-17T07:23:27.160Z,74.87
2018-03-17T07:24:27.167Z,74.87
2018-03-17T07:25:27.244Z,73.93
2018-03-17T07:26:27.104Z,74.11
2018-03-17T07:27:27.089Z,73.74
2018-03-17T07:28:27.068Z,73.93
2018-03-17T07:29:27.053Z,74.02
2018-03-17T07:30:27.036Z,73.26
2018-03-17T07:31:27.022Z,74.02
2018-03-17T07:32:27.001Z,73.83
2018-03-17T07:33:26.987Z,73.36
2018-03-17T07:34:26.709Z,74.02
2018-03-17T07:35:26.954Z,73.55
2018-03-17T07:36:26.935Z,73.83
2018-03-17T07:37:26.921Z,73.83
2018-03-17T07:38:26.900Z,74.49
2018-03-17T07:39:26.880Z,74.11
2018-03-17T07:40:26.868Z,73.74
2018-03-17T07:41:26.847Z,73.07
2018-03-17T07:42:26.832Z,72.32
2018-03-17T07:43:26.825Z,72.03
2018-03-17T07:44:26.799Z,70.62
2018-03-17T07:45:26.525Z,71.19
2018-03-17T07:46:26.764Z,72.03
2018-03-17T07:47:26.490Z,72.51
2018-03-17T07:48:26.729Z,72.13
2018-03-17T07:49:26.459Z,72.13
2018-03-17T07:50:26.697Z,72.51
2018-03-17T07:51:26.680Z,73.64
2018-03-17T07:52:26.407Z,74.49
2018-03-17T07:53:26.644Z,74.49
2018-03-17T07:54:26.632Z,73.64
2018-03-17T07:55:26.611Z,71.94
2018-03-17T07:56:26.599Z,72.88
2018-03-17T07:57:26.581Z,72.32
2018-03-17T07:58:26.565Z,72.32
2018-03-17T07:59:26.549Z,71.22
2018-03-17T08:00:26.534Z,70.47
2018-03-17T08:01:26.517Z,70.75
2018-03-17T08:02:26.512Z,70.28
2018-03-17T08:03:26.482Z,69.9
2018-03-17T08:04:26.470Z,71.22
2018-03-17T08:05:26.458Z,70.18
2018-03-17T08:06:26.441Z,69.9
2018-03-17T08:07:26.421Z,69.52
2018-03-17T08:08:26.407Z,69.62
2018-03-17T08:09:26.392Z,70.09
2018-03-17T08:10:26.392Z,69.05
2018-03-17T08:11:26.361Z,69.71
2018-03-17T08:12:26.095Z,70.34
2018-03-17T08:13:26.328Z,69.67
2018-03-17T08:14:26.395Z,70
2018-03-17T08:15:26.043Z,68.67
2018-03-17T08:16:26.282Z,68.16
2018-03-17T08:17:26.265Z,69.77
2018-03-17T08:18:26.248Z,71.41
2018-03-17T08:19:26.238Z,70.18
2018-03-17T08:20:26.216Z,69.52
2018-03-17T08:21:25.959Z,70
2018-03-17T08:22:25.960Z,70.28
2018-03-17T08:23:25.921Z,69.9
2018-03-17T08:24:26.152Z,69.33
2018-03-17T08:25:26.138Z,70.05
2018-03-17T08:26:26.124Z,69.52
2018-03-17T08:27:25.853Z,69.71
2018-03-17T08:28:26.092Z,70.47
2018-03-17T08:29:26.075Z,69.62
2018-03-17T08:30:26.064Z,68.95
2018-03-17T08:31:26.047Z,68.57
2018-03-17T08:32:26.027Z,68.01
2018-03-17T08:33:26.012Z,68.01
2018-03-17T08:34:26.003Z,70.47
2018-03-17T08:35:25.982Z,71.22
2018-03-17T08:36:25.967Z,70.75
2018-03-17T08:37:25.950Z,69.81
2018-03-17T08:38:25.935Z,68.2
2018-03-17T08:39:26.036Z,67.44
2018-03-17T08:40:25.903Z,66.41
2018-03-17T08:41:25.633Z,66.31
2018-03-17T08:42:25.874Z,66.22
2018-03-17T08:43:25.602Z,67.25
2018-03-17T08:44:25.842Z,67.25
2018-03-17T08:45:25.830Z,66.59
2018-03-17T08:46:25.827Z,67.54
2018-03-17T08:47:25.800Z,67.5
2018-03-17T08:48:25.785Z,68.76
2018-03-17T08:49:25.763Z,69.43
2018-03-17T08:50:25.747Z,69.62
2018-03-17T08:51:25.736Z,69.05
2018-03-17T08:52:25.720Z,67.54
2018-03-17T08:53:25.734Z,66.12
2018-03-17T08:54:25.686Z,65.84
2018-03-17T08:55:25.673Z,66.12
2018-03-17T08:56:25.666Z,66.59
2018-03-17T08:57:25.642Z,65.74
2018-03-17T08:58:25.631Z,65.93
2018-03-17T08:59:25.613Z,65.84
2018-03-17T09:00:25.342Z,67.44
2018-03-17T09:01:25.581Z,66.41
2018-03-17T09:02:25.566Z,66.59
2018-03-17T09:03:25.300Z,65.55
2018-03-17T09:04:25.570Z,64.89
2018-03-17T09:05:25.524Z,65.17
2018-03-17T09:06:25.508Z,66.31
2018-03-17T09:07:25.495Z,66.22
2018-03-17T09:08:25.474Z,66.5
2018-03-17T09:09:25.206Z,65.78
2018-03-17T09:10:25.451Z,64.73
2018-03-17T09:11:25.436Z,63.98
2018-03-17T09:12:25.418Z,63.98
2018-03-17T09:13:25.415Z,64.51
2018-03-17T09:14:25.394Z,63.76
2018-03-17T09:15:25.376Z,64.79
2018-03-17T09:16:25.411Z,64.23
2018-03-17T09:17:25.344Z,64.14
2018-03-17T09:18:25.333Z,63.76
2018-03-17T09:19:25.315Z,64.7
2018-03-17T09:20:25.065Z,65.65
2018-03-17T09:21:25.287Z,66.78
2018-03-17T09:22:25.308Z,65.78
2018-03-17T09:23:25.287Z,65.87
2018-03-17T09:24:25.348Z,65.97
2018-03-17T09:25:25.256Z,66.53
2018-03-17T09:26:24.961Z,66.44
2018-03-17T09:27:25.240Z,65.02
2018-03-17T09:28:25.187Z,64.36
2018-03-17T09:29:25.235Z,64.26
2018-03-17T09:30:25.161Z,63.89
2018-03-17T09:31:25.145Z,63.32
2018-03-17T09:32:24.875Z,62.85
2018-03-17T09:33:24.862Z,62.31
2018-03-17T09:34:24.846Z,62.31
2018-03-17T09:35:25.088Z,62.78
2018-03-17T09:36:25.093Z,63.54
2018-03-17T09:37:25.061Z,61.83
2018-03-17T09:38:25.102Z,61.27
2018-03-17T09:39:25.031Z,61.65
2018-03-17T09:40:25.018Z,62.59
2018-03-17T09:41:25.001Z,63.16
2018-03-17T09:42:24.737Z,63.64
2018-03-17T09:43:25.228Z,62.4
2018-03-17T09:44:24.967Z,63.54
2018-03-17T09:45:24.956Z,62.21
2018-03-17T09:46:24.935Z,62.12
2018-03-17T09:47:24.919Z,62.02
2018-03-17T09:48:24.911Z,62.69
2018-03-17T09:49:24.916Z,62.59
2018-03-17T09:50:24.883Z,63.45
2018-03-17T09:51:24.867Z,62.02
2018-03-17T09:52:24.858Z,60.23
2018-03-17T09:53:24.839Z,60.33
2018-03-17T09:54:24.831Z,61.93
2018-03-17T09:55:24.813Z,62.21
2018-03-17T09:56:24.799Z,62.02
2018-03-17T09:57:24.786Z,60.89
2018-03-17T09:58:24.831Z,60.33
2018-03-17T09:59:24.770Z,60.04
2018-03-17T10:00:24.744Z,59.09
2018-03-17T10:01:24.727Z,58.5
2018-03-17T10:02:24.719Z,59.16
2018-03-17T10:03:24.719Z,60.2
2018-03-17T10:04:24.691Z,61.61
2018-03-17T10:05:24.677Z,62.37
2018-03-17T10:06:24.662Z,63.51
2018-03-17T10:07:24.651Z,61.71
2018-03-17T10:08:24.638Z,60.67
2018-03-17T10:09:24.620Z,60.11
2018-03-17T10:10:24.350Z,60.11
2018-03-17T10:11:24.595Z,61.24
2018-03-17T10:12:24.578Z,60.96
2018-03-17T10:13:24.571Z,61.99
2018-03-17T10:14:24.553Z,61.71
2018-03-17T10:15:24.538Z,62.37
2018-03-17T10:16:24.541Z,62.09
2018-03-17T10:17:24.515Z,62.56
2018-03-17T10:18:24.567Z,64.45
2018-03-17T10:19:24.484Z,65.49
2018-03-17T10:20:24.215Z,66.35
2018-03-17T10:21:24.452Z,66.82
2018-03-17T10:22:24.441Z,64.29
2018-03-17T10:23:24.424Z,63.35
2018-03-17T10:24:24.409Z,61.55
2018-03-17T10:25:24.392Z,60.52
2018-03-17T10:26:24.380Z,60.52
2018-03-17T10:27:24.136Z,60.61
2018-03-17T10:28:24.354Z,59.85
2018-03-17T10:29:24.111Z,59.57
2018-03-17T10:30:24.323Z,58.91
2018-03-17T10:31:24.308Z,61.74
2018-03-17T10:32:24.295Z,63.54
2018-03-17T10:33:24.034Z,64.01
2018-03-17T10:34:24.270Z,64.48
2018-03-17T10:35:24.269Z,63.16
2018-03-17T10:36:24.276Z,61.08
2018-03-17T10:37:24.227Z,59.09
2018-03-17T10:38:24.215Z,58.62
2018-03-17T10:39:24.201Z,58.72
2018-03-17T10:40:24.191Z,57.96
2018-03-17T10:41:24.191Z,58.72
2018-03-17T10:42:24.155Z,58.91
2018-03-17T10:43:24.169Z,59.25
2018-03-17T10:44:24.133Z,59.35
2018-03-17T10:45:24.117Z,59.44
2018-03-17T10:46:24.104Z,59.35
2018-03-17T10:47:24.087Z,60.11
2018-03-17T10:48:24.074Z,61.99
2018-03-17T10:49:24.062Z,62.47
2018-03-17T10:50:24.050Z,61.8
2018-03-17T10:51:24.033Z,62.18
2018-03-17T10:52:24.024Z,60.61
2018-03-17T10:53:24.069Z,61.27
2018-03-17T10:54:23.735Z,61.36
2018-03-17T10:55:23.977Z,60.14
2018-03-17T10:56:23.713Z,59.28
2018-03-17T10:57:23.947Z,58.91
2018-03-17T10:58:23.948Z,59
2018-03-17T10:59:23.928Z,59.57
2018-03-17T11:00:23.910Z,59.57
2018-03-17T11:01:23.890Z,60.42
2018-03-17T11:02:23.886Z,60.33
2018-03-17T11:03:23.864Z,60.7
2018-03-17T11:04:23.851Z,60.42
2018-03-17T11:05:23.838Z,59.57
2018-03-17T11:06:23.868Z,58.34
2018-03-17T11:07:23.808Z,57.11
2018-03-17T11:08:23.812Z,58.62
2018-03-17T11:09:23.788Z,59.66
2018-03-17T11:10:23.558Z,60.42
2018-03-17T11:11:23.518Z,60.61
2018-03-17T11:12:23.768Z,61.65
2018-03-17T11:13:23.727Z,61.65
2018-03-17T11:14:23.736Z,60.04
2018-03-17T11:15:23.705Z,58.84
2018-03-17T11:16:23.686Z,57.61
2018-03-17T11:17:23.679Z,57.49
2018-03-17T11:18:23.660Z,57.8
2018-03-17T11:19:23.650Z,57.49
2018-03-17T11:20:23.634Z,58.28
2018-03-17T11:21:23.620Z,58.62
2018-03-17T11:22:23.609Z,57.49
2018-03-17T11:23:23.592Z,57.11
2018-03-17T11:24:23.580Z,59.57
2018-03-17T11:25:23.573Z,59
2018-03-17T11:26:23.551Z,57.87
2018-03-17T11:27:23.537Z,57.58
2018-03-17T11:28:23.538Z,57.2
2018-03-17T11:29:23.513Z,57.49
2018-03-17T11:30:23.496Z,57.68
2018-03-17T11:31:23.486Z,58.34
2018-03-17T11:32:23.216Z,58.62
2018-03-17T11:33:23.458Z,58.53
2018-03-17T11:34:23.187Z,58.06
2018-03-17T11:35:23.461Z,58.53
2018-03-17T11:36:23.415Z,59.28
2018-03-17T11:37:23.418Z,59
2018-03-17T11:38:23.139Z,58.44
2018-03-17T11:39:23.371Z,58.06
2018-03-17T11:40:23.361Z,58.15
2018-03-17T11:41:23.356Z,60.23
2018-03-17T11:42:23.331Z,60.7
2018-03-17T11:43:23.320Z,60.14
2018-03-17T11:44:23.310Z,60.04
2018-03-17T11:45:23.296Z,59.09
2018-03-17T11:46:23.294Z,59.38
2018-03-17T11:47:23.264Z,59.76
2018-03-17T11:48:23.247Z,59.57
2018-03-17T11:49:23.251Z,59.09
2018-03-17T11:50:23.229Z,60.33
2018-03-17T11:51:23.206Z,58.81
2018-03-17T11:52:23.189Z,58.06
2018-03-17T11:53:23.180Z,58.34
2018-03-17T11:54:23.166Z,58.25
2018-03-17T11:55:23.150Z,58.15
2018-03-17T11:56:23.154Z,57.52
2018-03-17T11:57:23.141Z,56.73
2018-03-17T11:58:23.107Z,58.15
2018-03-17T11:59:23.091Z,57.58
2018-03-17T12:00:23.096Z,56.45
2018-03-17T12:01:23.067Z,56.73
2018-03-17T12:02:23.052Z,57.96
2018-03-17T12:03:23.044Z,59.38
2018-03-17T12:04:22.766Z,59.38
2018-03-17T12:05:23.012Z,58.34
2018-03-17T12:06:23.004Z,57.52
2018-03-17T12:07:22.725Z,56.67
2018-03-17T12:08:22.967Z,56.85
2018-03-17T12:09:22.955Z,56.57
2018-03-17T12:10:22.944Z,55.91
2018-03-17T12:11:22.945Z,56.73
2018-03-17T12:12:22.911Z,56.63
2018-03-17T12:13:22.906Z,57.49
2018-03-17T12:14:22.635Z,57.58
2018-03-17T12:15:22.869Z,57.3
2018-03-17T12:16:22.867Z,57.87
2018-03-17T12:17:22.846Z,57.71
2018-03-17T12:18:22.858Z,57.52
2018-03-17T12:19:23.075Z,57.99
2018-03-17T12:20:22.808Z,57.33
2018-03-17T12:21:22.534Z,57.52
2018-03-17T12:22:22.819Z,56.85
2018-03-17T12:23:22.821Z,56.95
2018-03-17T12:24:22.756Z,56.29
2018-03-17T12:25:22.748Z,54.87
2018-03-17T12:26:22.721Z,54.96
2018-03-17T12:27:22.709Z,54.77
2018-03-17T12:28:22.730Z,54.58
2018-03-17T12:29:22.689Z,55.06
2018-03-17T12:30:22.671Z,55.98
2018-03-17T12:31:22.666Z,56.35
2018-03-17T12:32:22.649Z,56.73
2018-03-17T12:33:22.649Z,57.49
2018-03-17T12:34:22.649Z,57.87
2018-03-17T12:35:22.616Z,58.25
2018-03-17T12:36:22.582Z,57.68
2018-03-17T12:37:22.569Z,56.63
2018-03-17T12:38:22.559Z,56.35
2018-03-17T12:39:22.545Z,56.82
2018-03-17T12:40:24.401Z,56.92
2018-03-17T12:41:22.516Z,56.92
2018-03-17T12:42:22.504Z,56.76
2018-03-17T12:43:22.499Z,57.11
2018-03-17T12:44:22.480Z,56.73
2018-03-17T12:45:22.466Z,57.11
2018-03-17T12:46:22.445Z,57.49
2018-03-17T12:47:22.432Z,57.11
2018-03-17T12:48:22.432Z,56.95
2018-03-17T12:49:22.408Z,56.29
2018-03-17T12:50:22.650Z,56.95
2018-03-17T12:51:22.383Z,56.48
2018-03-17T12:52:22.362Z,56.76
2018-03-17T12:53:22.346Z,55.25
2018-03-17T12:54:22.342Z,55.15
2018-03-17T12:55:22.320Z,55.72
2018-03-17T12:56:22.050Z,55.82